AirNav   Air Wisconsin Up To $57,000 Bonus
 
 908 users online  

2LA7 Costello Airport
Oak Grove, Louisiana, USA

GOING TO OAK GROVE?


FAA INFORMATION EFFECTIVE 26 MARCH 2020

Location

FAA Identifier: 2LA7
Lat/Long: 32-57-57.0750N 091-25-33.1050W
32-57.951250N 091-25.551750W
32.9658542,-91.4258625
(estimated)
SURVEYED
Elevation: 100.1 ft. / 31 m (estimated)
Variation: 03E (1990)
From city: 7 miles NW of OAK GROVE, LA
Time zone: UTC -5 (UTC -6 during Standard Time)
Zip code: 71263

Airport Operations

Airport use: Private use. Permission required prior to landing
Activation date: 05/1993
Control tower: no
ARTCC: MEMPHIS CENTER
FSS: DE RIDDER FLIGHT SERVICE STATION
NOTAMs facility: FDC (NOTAM-D service not available)
Attendance: UNATNDD
Wind indicator: yes
Segmented circle: no
Lights: ACTVT MIRL RY 01/19 - 122.9.
Beacon: white-green-yellow (heliport)
ACTVT ROTG BCN -122.9

Nearby radio navigation aids

VOR radial/distance  VOR name  Freq  Var
MONr154/38.6MONTICELLO VOR/DME111.6004E

 
NDB name  Hdg/Dist  Freq  Var  ID
BASTROP058/26.332903EBQP -... --.- .--.
METCALF220/35.435901WMTQ -- - --.-

Airport Services

Runway Information

Runway 1/19

Dimensions: 3293 x 25 ft. / 1004 x 8 m
Surface: asphalt
Runway edge lights: medium intensity
RUNWAY 1  RUNWAY 19
Latitude: 32-57.684167N32-58.218333N
Longitude: 091-25.609833W091-25.493667W
Elevation: 99.5 ft.100.1 ft.
Traffic pattern: leftleft
Runway end identifier lights: yesyes
Touchdown point: yes, no lightsyes, no lights
Obstructions: 25 ft. bldg, 100 ft. from runway25 ft. bldg, 25 ft. from runway

Airport Ownership and Management from official FAA records

Ownership: Privately-owned
Owner: HEBER COSTELLO CONSTRUCTION
609 COSTELLO RD
OAK GROVE, LA 71263
Phone 318-428-9316
Manager: SCOTT COSTELLO
609 COSTELLO ROAD
OAK GROVE, LA 71263
Phone 318-428-9316

Airport Operational Statistics

Aircraft based on the field: 1
Single engine airplanes: 1
    

Additional Remarks

FOR CD CTC MEMPHIS ARTCC AT 901-368-8453.

Instrument Procedures

There are no published instrument procedures at 2LA7.

Some nearby airports with instrument procedures:

M32 - Lake Village Municipal Airport (24 nm N)
KBQP - Morehouse Memorial Airport (26 nm SW)
KCRT - Z M Jack Stell Field Airport (26 nm NW)
M79 - John H Hooks Jr Memorial Airport (34 nm SW)
KGLH - Greenville Mid-Delta Airport (38 nm NE)
 
Loc | Ops | Rwys | IFR | FBO | Links
Com | Nav | Svcs | Stats | Notes
Area around 2LA7 (Costello Airport)
 
Road maps at: MapQuest Bing Google
 
Aerial photo
No photo
 
Sectional chart

 
Airport distance calculator
Flying to Costello Airport? Find the distance to fly.

From to 2LA7

Sunrise and sunset
Times for 29-Mar-2020
 Local
(UTC-5)
 Zulu
(UTC)
Morning civil twilight06:3211:32
Sunrise06:5711:57
Sunset19:2300:23
Evening civil twilight19:4800:48

Current date and time
Zulu (UTC)  29-Mar-2020 21:23:08
Local (UTC-5)  29-Mar-2020 16:23:08
 
METAR
KBQP 
26nm SW 
292055Z AUTO 33004KT 10SM CLR 24/03 A3017 RMK AO2 T02360029
KGLH 
39nm NE 
292053Z 30008KT 10SM CLR 22/08 A3016 RMK AO2 SLP218 T02170078 56003
KMLU 
41nm SW 
292053Z 03005KT 10SM CLR 26/06 A3015 RMK AO2 SLP209 T02560056 58010
KTVR 
42nm SE 
292053Z AUTO 00000KT 10SM CLR 23/09 A3017 RMK AO2 SLP221 T02330094 58004
KLLQ 
43nm N 
292053Z AUTO 28005KT 10SM CLR 23/04 A3015 RMK AO2 SLP208 T02280044 58010
TAF
KGLH 
39nm NE 
291720Z 2918/3018 33008KT P6SM SCT250 FM300100 03003KT P6SM BKN250 FM301400 06008KT P6SM SCT100 OVC250
KMLU 
41nm SW 
291742Z 2918/3018 02007KT P6SM SCT250 FM300000 05003KT P6SM OVC150 FM301200 07006KT P6SM OVC040
KLLQ 
43nm N 
291720Z 2918/3018 30009KT P6SM SCT250 FM292300 VRB03KT P6SM BKN250 FM301200 10007KT P6SM BKN100 OVC250
NOTAMs
Click for the latest NOTAMs
NOTAMs are issued by the DoD/FAA and will open in a separate window not controlled by AirNav.

 

 
 

Would you like to see your business listed on this page?

 If your business provides an interesting product or service to pilots, flight crews, aircraft, or users of the Costello Airport, you should consider listing it here.  To start the listing process, click on the button below
 
Add a business
 

Other Pages about Costello Airport

Update a link
 
Copyright © AirNav, LLC. All rights reserved. Privacy Policy  Contact